createdAt,value
2022-09-16T00:02:30.907Z,9.43
2022-09-16T00:05:34.236Z,9.47
2022-09-16T00:08:38.804Z,8.97
2022-09-16T00:11:41.884Z,9.23
2022-09-16T00:14:44.549Z,11.27
2022-09-16T00:17:49.109Z,8.30
2022-09-16T00:20:54.848Z,9.13
2022-09-16T00:23:59.062Z,13.40
2022-09-16T00:27:01.692Z,8.60
2022-09-16T00:30:06.240Z,8.10
2022-09-16T00:33:10.949Z,7.90
2022-09-16T00:36:16.182Z,7.07
2022-09-16T00:39:19.270Z,5.00
2022-09-16T00:42:22.371Z,9.93
2022-09-16T00:45:27.284Z,8.30
2022-09-16T00:48:34.067Z,10.40
2022-09-16T00:51:38.201Z,8.80
2022-09-16T00:54:42.441Z,6.17
2022-09-16T00:57:46.546Z,8.23
2022-09-16T01:00:50.125Z,6.30
2022-09-16T01:03:58.285Z,6.67
2022-09-16T01:07:01.650Z,6.83
2022-09-16T01:10:05.304Z,11.30
2022-09-16T01:13:11.868Z,12.23
2022-09-16T01:16:22.114Z,11.83
2022-09-16T01:19:45.279Z,8.10
2022-09-16T01:23:09.427Z,11.30
2022-09-16T01:26:29.828Z,10.83
2022-09-16T01:30:14.558Z,11.90
2022-09-16T01:33:32.721Z,7.77
2022-09-16T01:36:48.793Z,13.03
2022-09-16T01:40:00.981Z,10.73
2022-09-16T01:43:11.206Z,13.77
2022-09-16T01:46:22.522Z,14.70
2022-09-16T01:49:39.177Z,9.37
2022-09-16T01:52:48.247Z,13.27
2022-09-16T01:55:55.340Z,9.87
2022-09-16T01:59:04.165Z,11.17
2022-09-16T02:02:13.612Z,8.80
2022-09-16T02:05:23.040Z,13.93
2022-09-16T02:08:28.455Z,9.00
2022-09-16T02:11:32.107Z,10.33
2022-09-16T02:14:39.775Z,10.50
2022-09-16T02:17:46.952Z,12.50
2022-09-16T02:20:54.897Z,13.83
2022-09-16T02:24:02.013Z,13.27
2022-09-16T02:27:10.482Z,8.53
2022-09-16T02:30:17.888Z,8.50
2022-09-16T02:33:22.183Z,11.53
2022-09-16T02:36:28.032Z,8.40
2022-09-16T02:39:35.835Z,18.63
2022-09-16T02:42:38.825Z,10.10
2022-09-16T02:45:48.353Z,8.87
2022-09-16T02:49:00.111Z,14.33
2022-09-16T02:52:13.835Z,12.20
2022-09-16T02:55:25.896Z,9.50
2022-09-16T02:58:29.648Z,7.77
2022-09-16T03:01:35.630Z,9.97
2022-09-16T03:04:39.029Z,12.13
2022-09-16T03:07:44.554Z,8.27
2022-09-16T03:10:48.049Z,10.03
2022-09-16T03:14:01.418Z,7.70
2022-09-16T03:17:14.702Z,9.43
2022-09-16T03:20:26.518Z,16.87
2022-09-16T03:23:42.878Z,14.07
2022-09-16T03:26:49.536Z,11.70
2022-09-16T03:30:01.090Z,15.90
2022-09-16T03:33:08.839Z,12.40
2022-09-16T03:36:15.308Z,16.03
2022-09-16T03:39:20.625Z,9.30
2022-09-16T03:42:24.212Z,9.73
2022-09-16T03:45:26.872Z,7.23
2022-09-16T03:48:30.035Z,11.37
2022-09-16T03:51:32.816Z,15.13
2022-09-16T03:54:37.673Z,13.73
2022-09-16T03:57:40.437Z,14.80
2022-09-16T04:00:43.154Z,10.93
2022-09-16T04:03:45.838Z,10.00
2022-09-16T04:06:48.788Z,10.70
2022-09-16T04:09:53.131Z,10.80
2022-09-16T04:12:59.302Z,8.73
2022-09-16T04:16:02.635Z,10.43
2022-09-16T04:19:05.759Z,11.80
2022-09-16T04:22:08.934Z,17.13
2022-09-16T04:25:12.975Z,10.63
2022-09-16T04:28:16.183Z,7.80
2022-09-16T04:31:19.947Z,13.47
2022-09-16T04:34:22.696Z,17.40
2022-09-16T04:37:25.411Z,10.43
2022-09-16T04:40:29.535Z,8.87
2022-09-16T04:43:32.758Z,14.80
2022-09-16T04:46:35.933Z,6.97
2022-09-16T04:49:38.662Z,8.83
2022-09-16T04:52:41.740Z,17.97
2022-09-16T04:55:46.230Z,15.43
2022-09-16T04:58:51.013Z,10.20
2022-09-16T05:01:53.862Z,6.03
2022-09-16T05:04:56.683Z,7.33
2022-09-16T05:07:59.438Z,6.17
2022-09-16T05:11:09.158Z,8.07
2022-09-16T05:14:15.892Z,12.63
2022-09-16T05:17:39.479Z,4.47
2022-09-16T05:20:41.607Z,3.73
2022-09-16T05:23:46.978Z,6.40
2022-09-16T05:27:00.650Z,5.50
2022-09-16T05:30:03.408Z,5.37
2022-09-16T05:33:06.160Z,7.13
2022-09-16T05:36:11.471Z,2.37
2022-09-16T05:39:23.334Z,8.17
2022-09-16T05:42:28.087Z,6.50
2022-09-16T05:45:32.503Z,12.17
2022-09-16T05:48:36.300Z,6.27
2022-09-16T05:51:41.283Z,10.87
2022-09-16T05:54:43.976Z,8.50
2022-09-16T05:57:48.145Z,8.90
2022-09-16T06:00:51.917Z,5.50
2022-09-16T06:03:55.926Z,9.70
2022-09-16T06:06:58.639Z,4.13
2022-09-16T06:10:01.525Z,3.87
2022-09-16T06:13:05.682Z,4.23
2022-09-16T06:16:10.340Z,6.40
2022-09-16T06:19:14.687Z,3.87
2022-09-16T06:22:17.466Z,6.67
2022-09-16T06:25:20.158Z,7.53
2022-09-16T06:28:26.790Z,4.30
2022-09-16T06:31:30.299Z,6.53
2022-09-16T06:34:33.185Z,3.57
2022-09-16T06:37:35.846Z,8.57
2022-09-16T06:40:38.593Z,3.03
2022-09-16T06:43:43.975Z,6.87
2022-09-16T06:46:46.883Z,3.27
2022-09-16T06:49:49.612Z,5.43
2022-09-16T06:52:52.694Z,6.50
2022-09-16T06:55:55.527Z,5.70
2022-09-16T06:58:59.643Z,7.77
2022-09-16T07:02:02.910Z,9.07
2022-09-16T07:05:06.316Z,7.20
2022-09-16T07:08:10.391Z,8.20
2022-09-16T07:11:14.967Z,8.63
2022-09-16T07:14:19.110Z,18.17
2022-09-16T07:17:23.676Z,4.60
2022-09-16T07:20:26.559Z,7.70
2022-09-16T07:23:30.618Z,4.77
2022-09-16T07:26:35.206Z,8.57
2022-09-16T07:29:39.379Z,6.50
2022-09-16T07:32:42.279Z,9.20
2022-09-16T07:35:45.119Z,5.37
2022-09-16T07:38:48.340Z,6.07
2022-09-16T07:41:51.140Z,22.63
2022-09-16T07:44:54.089Z,14.97
2022-09-16T07:47:58.191Z,10.80
2022-09-16T07:51:02.533Z,8.07
2022-09-16T07:54:08.088Z,10.30
2022-09-16T07:57:10.810Z,5.00
2022-09-16T08:00:16.272Z,4.17
2022-09-16T08:03:20.423Z,9.27
2022-09-16T08:06:25.022Z,6.23
2022-09-16T08:09:38.772Z,12.37
2022-09-16T08:12:48.307Z,3.57
2022-09-16T08:15:53.427Z,7.07
2022-09-16T08:18:59.890Z,5.83
2022-09-16T08:22:02.815Z,7.00
2022-09-16T08:25:06.312Z,6.63
2022-09-16T08:28:14.016Z,4.30
2022-09-16T08:31:17.669Z,8.57
2022-09-16T08:34:21.787Z,4.13
2022-09-16T08:37:24.745Z,8.27
2022-09-16T08:40:31.872Z,6.80
2022-09-16T08:43:40.788Z,5.57
2022-09-16T08:46:51.381Z,4.60
2022-09-16T08:49:59.802Z,5.53
2022-09-16T08:53:06.627Z,6.40
2022-09-16T08:56:15.064Z,8.60
2022-09-16T08:59:25.040Z,4.37
2022-09-16T09:05:53.645Z,7.50
2022-09-16T09:09:06.168Z,4.57
2022-09-16T09:12:15.370Z,5.90
2022-09-16T09:15:30.577Z,5.93
2022-09-16T09:18:41.916Z,4.37
2022-09-16T09:21:55.561Z,6.33
2022-09-16T09:25:15.209Z,4.93
2022-09-16T09:28:38.468Z,3.40
2022-09-16T09:31:50.015Z,1.60
2022-09-16T09:35:11.557Z,7.00
2022-09-16T09:38:40.909Z,5.70
2022-09-16T09:41:47.645Z,7.33
2022-09-16T09:45:01.375Z,3.20
2022-09-16T09:48:18.103Z,5.57
2022-09-16T09:51:27.813Z,7.43
2022-09-16T09:54:35.406Z,3.83
2022-09-16T09:57:41.969Z,6.30
2022-09-16T10:00:45.683Z,6.60
2022-09-16T10:03:50.162Z,4.83
2022-09-16T10:06:55.823Z,2.97
2022-09-16T10:10:03.873Z,2.90
2022-09-16T10:13:11.000Z,4.00
2022-09-16T10:16:17.946Z,3.50
2022-09-16T10:19:24.857Z,3.87
2022-09-16T10:22:29.639Z,1.97
2022-09-16T10:25:35.493Z,3.53
2022-09-16T10:28:39.368Z,5.40
2022-09-16T10:31:42.842Z,4.10
2022-09-16T10:34:47.208Z,6.97
2022-09-16T10:37:54.054Z,5.77
2022-09-16T10:41:03.478Z,2.57
2022-09-16T10:44:17.506Z,2.93
2022-09-16T10:47:26.220Z,2.23
2022-09-16T10:50:30.791Z,4.57
2022-09-16T10:53:39.578Z,4.13
2022-09-16T10:56:52.451Z,2.30
2022-09-16T11:00:18.438Z,3.20
2022-09-16T11:04:01.304Z,4.63
2022-09-16T11:07:12.646Z,3.23
2022-09-16T11:10:24.288Z,6.87
2022-09-16T11:13:43.999Z,10.37
2022-09-16T11:16:58.944Z,4.23
2022-09-16T11:20:28.587Z,3.07
2022-09-16T11:23:46.928Z,5.43
2022-09-16T11:27:00.467Z,3.73
2022-09-16T11:30:11.101Z,3.93
2022-09-16T11:33:22.627Z,3.57
2022-09-16T11:36:45.729Z,4.27
2022-09-16T11:40:03.128Z,7.13
2022-09-16T11:43:28.762Z,3.23
2022-09-16T11:46:40.112Z,2.13
2022-09-16T11:49:56.719Z,3.00
2022-09-16T11:53:21.107Z,4.23
2022-09-16T11:56:35.581Z,6.03
2022-09-16T11:59:44.562Z,0.83
2022-09-16T12:02:59.665Z,5.53
2022-09-16T12:06:09.075Z,2.33
2022-09-16T12:09:15.433Z,1.50
2022-09-16T12:12:22.562Z,4.20
2022-09-16T12:15:28.769Z,3.53
2022-09-16T12:18:38.547Z,5.63
2022-09-16T12:21:47.752Z,3.47
2022-09-16T12:25:03.035Z,4.83
2022-09-16T12:28:14.851Z,5.00
2022-09-16T12:31:24.090Z,2.90
2022-09-16T12:34:34.167Z,4.40
2022-09-16T12:37:42.459Z,1.37
2022-09-16T12:41:02.318Z,4.63
2022-09-16T12:44:33.925Z,5.10
2022-09-16T12:48:20.509Z,4.13
2022-09-16T12:52:01.837Z,4.10
2022-09-16T12:55:34.325Z,3.67
2022-09-16T12:59:03.046Z,1.73
2022-09-16T13:02:13.983Z,1.80
2022-09-16T13:05:23.207Z,2.07
2022-09-16T13:08:30.163Z,3.17
2022-09-16T13:15:07.829Z,2.23
2022-09-16T13:18:22.311Z,5.60
2022-09-16T13:21:28.637Z,1.97
2022-09-16T13:24:37.761Z,2.50
2022-09-16T13:27:54.000Z,2.73
2022-09-16T13:30:56.783Z,3.37
2022-09-16T13:34:16.734Z,5.83
2022-09-16T13:37:26.630Z,1.83
2022-09-16T13:40:31.268Z,2.87
2022-09-16T13:43:38.139Z,2.87
2022-09-16T13:46:40.957Z,3.13
2022-09-16T13:49:48.639Z,0.93
2022-09-16T13:52:53.067Z,1.17
2022-09-16T13:56:01.740Z,6.43
2022-09-16T13:59:20.272Z,4.03
2022-09-16T14:02:32.614Z,1.10
2022-09-16T14:06:05.649Z,2.47
2022-09-16T14:09:21.446Z,2.93
2022-09-16T14:12:31.313Z,2.90
2022-09-16T14:15:40.959Z,1.17
2022-09-16T14:18:50.537Z,5.23
2022-09-16T14:22:02.659Z,5.17
2022-09-16T14:25:29.377Z,17.77
2022-09-16T14:28:34.851Z,2.33
2022-09-16T14:31:45.399Z,4.10
2022-09-16T14:34:52.628Z,3.40
2022-09-16T14:37:58.450Z,2.60
2022-09-16T14:41:01.483Z,1.57
2022-09-16T14:44:10.172Z,3.37
2022-09-16T14:47:38.110Z,5.47
2022-09-16T14:50:48.052Z,2.00
2022-09-16T14:54:12.299Z,1.63
2022-09-16T14:57:18.524Z,0.87
2022-09-16T15:00:21.800Z,3.03
2022-09-16T15:03:31.581Z,4.37
2022-09-16T15:06:37.971Z,2.70
2022-09-16T15:09:48.098Z,4.37
2022-09-16T15:12:54.255Z,1.97
2022-09-16T15:16:00.889Z,1.57
2022-09-16T15:19:07.209Z,1.80
2022-09-16T15:22:15.696Z,1.07
2022-09-16T15:25:23.909Z,0.63
2022-09-16T15:28:26.845Z,1.10
2022-09-16T15:31:35.035Z,1.37
2022-09-16T15:34:39.195Z,1.37
2022-09-16T15:37:41.850Z,1.33
2022-09-16T15:40:44.695Z,2.77
2022-09-16T15:43:48.041Z,0.40
2022-09-16T15:46:51.366Z,0.80
2022-09-16T15:50:01.677Z,1.00
2022-09-16T15:53:07.700Z,1.23
2022-09-16T15:56:22.900Z,1.03
2022-09-16T15:59:30.826Z,1.00
2022-09-16T16:02:40.194Z,0.80
2022-09-16T16:05:52.117Z,0.57
2022-09-16T16:08:58.128Z,1.23
2022-09-16T16:12:02.796Z,1.07
2022-09-16T16:15:08.228Z,1.37
2022-09-16T16:18:11.296Z,2.13
2022-09-16T16:21:17.586Z,1.87
2022-09-16T16:24:20.383Z,1.43
2022-09-16T16:27:23.726Z,0.90
2022-09-16T16:30:26.460Z,1.07
2022-09-16T16:33:29.442Z,0.83
2022-09-16T16:36:33.512Z,0.40
2022-09-16T16:39:36.848Z,2.43
2022-09-16T16:42:40.316Z,0.30
2022-09-16T16:45:43.221Z,1.63
2022-09-16T16:48:45.915Z,1.53
2022-09-16T16:51:51.289Z,2.07
2022-09-16T16:54:54.033Z,1.63
2022-09-16T16:57:56.983Z,1.33
2022-09-16T17:01:08.643Z,1.23
2022-09-16T17:04:11.723Z,2.20
2022-09-16T17:07:32.512Z,1.23
2022-09-16T17:10:35.355Z,0.53
2022-09-16T17:13:38.486Z,0.50
2022-09-16T17:16:41.559Z,0.83
2022-09-16T17:19:44.242Z,1.57
2022-09-16T17:22:48.987Z,2.60
2022-09-16T17:25:51.758Z,2.13
2022-09-16T17:28:57.938Z,0.83
2022-09-16T17:32:03.437Z,2.17
2022-09-16T17:35:07.100Z,4.23
2022-09-16T17:38:12.224Z,5.50
2022-09-16T17:41:17.464Z,1.33
2022-09-16T17:44:21.418Z,3.33
2022-09-16T17:47:24.087Z,1.10
2022-09-16T17:50:27.327Z,0.80
2022-09-16T17:53:32.396Z,2.67
2022-09-16T17:56:35.299Z,0.60
2022-09-16T17:59:39.454Z,0.53
2022-09-16T18:02:43.003Z,0.50
2022-09-16T18:05:47.456Z,1.30
2022-09-16T18:08:52.978Z,2.30
2022-09-16T18:11:58.663Z,2.07
2022-09-16T18:15:01.362Z,0.70
2022-09-16T18:18:04.710Z,12.60
2022-09-16T18:21:09.495Z,2.10
2022-09-16T18:24:14.525Z,1.97
2022-09-16T18:27:17.308Z,0.90
2022-09-16T18:30:20.379Z,1.17
2022-09-16T18:33:27.739Z,1.73
2022-09-16T18:36:32.721Z,2.90
2022-09-16T18:39:36.880Z,2.87
2022-09-16T18:42:40.027Z,1.00
2022-09-16T18:45:42.769Z,2.97
2022-09-16T18:48:47.695Z,2.13
2022-09-16T18:51:52.484Z,2.10
2022-09-16T18:54:57.665Z,2.27
2022-09-16T18:58:00.578Z,1.00
2022-09-16T19:01:09.520Z,2.30
2022-09-16T19:04:14.218Z,2.67
2022-09-16T19:07:18.221Z,2.80
2022-09-16T19:10:22.220Z,1.33
2022-09-16T19:13:25.283Z,1.00
2022-09-16T19:16:28.189Z,2.80
2022-09-16T19:19:31.511Z,1.07
2022-09-16T19:22:35.012Z,1.37
2022-09-16T19:25:39.219Z,1.73
2022-09-16T19:28:42.429Z,0.63
2022-09-16T19:31:47.535Z,1.73
2022-09-16T19:34:50.217Z,2.30
2022-09-16T19:37:53.059Z,1.60
2022-09-16T19:41:03.714Z,5.03
2022-09-16T19:44:09.501Z,1.97
2022-09-16T19:47:12.435Z,1.43
2022-09-16T19:50:15.630Z,1.80
2022-09-16T19:53:18.388Z,0.40
2022-09-16T19:56:25.068Z,1.20
2022-09-16T19:59:27.733Z,1.27
2022-09-16T20:02:30.570Z,0.53
2022-09-16T20:05:33.893Z,1.90
2022-09-16T20:08:38.418Z,0.87
2022-09-16T20:11:44.995Z,2.20
2022-09-16T20:14:48.140Z,2.07
2022-09-16T20:17:51.490Z,1.43
2022-09-16T20:20:54.874Z,1.77
2022-09-16T20:23:58.138Z,1.67
2022-09-16T20:27:02.643Z,1.93
2022-09-16T20:30:06.198Z,1.10
2022-09-16T20:33:09.257Z,3.23
2022-09-16T20:36:13.967Z,1.67
2022-09-16T20:39:17.121Z,2.60
2022-09-16T20:45:45.186Z,1.63
2022-09-16T20:48:48.799Z,2.27
2022-09-16T20:51:52.501Z,1.70
2022-09-16T20:54:55.345Z,3.87
2022-09-16T20:57:59.505Z,4.07
2022-09-16T21:01:07.308Z,2.60
2022-09-16T21:04:14.265Z,1.93
2022-09-16T21:07:16.973Z,0.80
2022-09-16T21:10:21.100Z,0.93
2022-09-16T21:13:25.417Z,2.20
2022-09-16T21:16:30.459Z,1.03
2022-09-16T21:19:33.159Z,1.53
2022-09-16T21:22:36.879Z,2.50
2022-09-16T21:25:39.611Z,3.03
2022-09-16T21:28:44.875Z,2.00
2022-09-16T21:31:48.986Z,0.70
2022-09-16T21:34:53.163Z,1.07
2022-09-16T21:37:55.855Z,1.07
2022-09-16T21:41:00.485Z,0.67
2022-09-16T21:44:05.373Z,1.33
2022-09-16T21:47:10.494Z,3.47
2022-09-16T21:50:13.553Z,4.00
2022-09-16T21:53:16.494Z,1.67
2022-09-16T21:56:21.195Z,1.60
2022-09-16T21:59:25.265Z,4.20
2022-09-16T22:02:31.032Z,2.27
2022-09-16T22:05:34.663Z,0.93
2022-09-16T22:08:37.798Z,3.67
2022-09-16T22:11:44.498Z,2.40
2022-09-16T22:14:48.560Z,1.50
2022-09-16T22:17:54.752Z,0.67
2022-09-16T22:21:03.134Z,2.57
2022-09-16T22:24:07.552Z,3.33
2022-09-16T22:27:10.274Z,4.33
2022-09-16T22:30:15.087Z,1.40
2022-09-16T22:33:17.780Z,3.93
2022-09-16T22:36:22.993Z,3.53
2022-09-16T22:39:26.131Z,1.23
2022-09-16T22:42:28.856Z,1.93
2022-09-16T22:45:32.885Z,1.43
2022-09-16T22:48:36.117Z,1.70
2022-09-16T22:51:39.756Z,4.20
2022-09-16T22:54:42.880Z,3.13
2022-09-16T22:57:45.557Z,1.77
2022-09-16T23:00:50.850Z,4.33
2022-09-16T23:03:55.208Z,1.97
2022-09-16T23:06:58.550Z,2.43
2022-09-16T23:10:01.869Z,2.93
2022-09-16T23:13:04.574Z,3.07
2022-09-16T23:16:12.344Z,7.30
2022-09-16T23:19:15.240Z,4.57
2022-09-16T23:22:18.465Z,2.73
2022-09-16T23:25:22.741Z,1.40
2022-09-16T23:28:25.973Z,1.50
2022-09-16T23:31:32.117Z,2.70
2022-09-16T23:34:35.203Z,4.57
2022-09-16T23:37:38.331Z,4.10
2022-09-16T23:40:41.147Z,2.87
2022-09-16T23:43:45.055Z,4.03
2022-09-16T23:46:49.405Z,2.57
2022-09-16T23:49:53.570Z,2.77
2022-09-16T23:52:56.359Z,3.47
2022-09-16T23:55:59.655Z,2.93
2022-09-16T23:59:02.367Z,5.43
